createdAt,value
2023-01-22T00:01:32.195Z,9.07
2023-01-22T00:04:01.211Z,8.80
2023-01-22T00:06:29.543Z,9.20
2023-01-22T00:09:05.502Z,9.40
2023-01-22T00:11:36.319Z,8.45
2023-01-22T00:14:05.830Z,8.65
2023-01-22T00:16:34.690Z,8.73
2023-01-22T00:19:03.241Z,8.15
2023-01-22T00:21:33.783Z,8.00
2023-01-22T00:24:03.138Z,8.38
2023-01-22T00:26:31.389Z,7.60
2023-01-22T00:29:01.798Z,8.77
2023-01-22T00:31:32.825Z,8.95
2023-01-22T00:34:01.374Z,7.93
2023-01-22T00:36:33.681Z,7.30
2023-01-22T00:39:02.279Z,7.57
2023-01-22T00:41:31.244Z,8.20
2023-01-22T00:44:02.021Z,7.28
2023-01-22T00:46:31.604Z,7.78
2023-01-22T00:49:00.725Z,6.85
2023-01-22T00:51:29.823Z,6.85
2023-01-22T00:53:59.006Z,6.67
2023-01-22T00:56:28.600Z,6.78
2023-01-22T00:58:58.607Z,7.25
2023-01-22T01:01:29.262Z,7.60
2023-01-22T01:03:59.097Z,8.15
2023-01-22T01:06:28.208Z,7.28
2023-01-22T01:08:57.704Z,7.00
2023-01-22T01:11:30.466Z,7.47
2023-01-22T01:14:01.088Z,7.40
2023-01-22T01:16:33.987Z,7.95
2023-01-22T01:19:06.300Z,6.97
2023-01-22T01:21:37.092Z,7.85
2023-01-22T01:24:08.669Z,7.72
2023-01-22T01:26:37.877Z,7.47
2023-01-22T01:29:10.015Z,7.18
2023-01-22T01:31:42.244Z,6.40
2023-01-22T01:34:13.594Z,7.70
2023-01-22T01:36:50.452Z,7.30
2023-01-22T01:39:20.773Z,7.10
2023-01-22T01:41:50.450Z,6.72
2023-01-22T01:44:22.865Z,6.38
2023-01-22T01:47:01.921Z,6.93
2023-01-22T01:49:40.307Z,5.70
2023-01-22T01:52:14.461Z,6.50
2023-01-22T01:54:50.503Z,6.68
2023-01-22T01:57:27.712Z,7.22
2023-01-22T02:00:02.236Z,7.18
2023-01-22T02:02:32.653Z,7.67
2023-01-22T02:05:03.964Z,7.40
2023-01-22T02:07:33.367Z,7.30
2023-01-22T02:10:05.468Z,7.50
2023-01-22T02:15:19.700Z,8.68
2023-01-22T02:17:51.855Z,9.68
2023-01-22T02:20:20.852Z,9.45
2023-01-22T02:22:52.437Z,10.00
2023-01-22T02:25:24.625Z,10.10
2023-01-22T02:27:55.621Z,10.48
2023-01-22T02:30:28.596Z,10.25
2023-01-22T02:32:58.409Z,9.23
2023-01-22T02:35:29.779Z,10.45
2023-01-22T02:38:10.642Z,10.75
2023-01-22T02:40:49.449Z,10.63
2023-01-22T02:43:21.130Z,12.05
2023-01-22T02:45:52.171Z,17.20
2023-01-22T02:48:20.839Z,16.05
2023-01-22T02:50:49.726Z,13.43
2023-01-22T02:53:21.183Z,13.07
2023-01-22T02:55:51.165Z,13.55
2023-01-22T02:58:20.033Z,13.95
2023-01-22T03:00:48.588Z,12.73
2023-01-22T03:03:18.590Z,12.23
2023-01-22T03:05:53.076Z,13.60
2023-01-22T03:08:26.861Z,17.90
2023-01-22T03:11:00.339Z,22.83
2023-01-22T03:13:47.364Z,13.23
2023-01-22T03:16:33.841Z,13.65
2023-01-22T03:19:22.836Z,17.45
2023-01-22T03:21:51.416Z,16.80
2023-01-22T03:24:22.802Z,15.20
2023-01-22T03:26:51.639Z,14.32
2023-01-22T03:29:20.767Z,26.40
2023-01-22T03:31:50.421Z,14.50
2023-01-22T03:34:23.367Z,15.98
2023-01-22T03:36:56.580Z,14.75
2023-01-22T03:39:28.050Z,29.77
2023-01-22T03:41:59.524Z,14.02
2023-01-22T03:44:29.017Z,16.25
2023-01-22T03:46:58.318Z,19.58
2023-01-22T03:49:27.768Z,21.27
2023-01-22T03:51:57.655Z,14.60
2023-01-22T03:54:29.918Z,16.42
2023-01-22T03:57:00.406Z,14.57
2023-01-22T03:59:33.020Z,13.85
2023-01-22T04:02:01.619Z,13.80
2023-01-22T04:04:34.444Z,16.38
2023-01-22T04:07:04.553Z,14.57
2023-01-22T04:09:35.117Z,15.63
2023-01-22T04:12:04.262Z,14.73
2023-01-22T04:14:33.407Z,14.52
2023-01-22T04:17:04.396Z,16.10
2023-01-22T04:20:08.968Z,16.00
2023-01-22T04:22:56.409Z,14.52
2023-01-22T04:25:27.600Z,14.02
2023-01-22T04:27:58.765Z,15.32
2023-01-22T04:30:28.372Z,13.77
2023-01-22T04:33:07.593Z,19.27
2023-01-22T04:35:52.015Z,16.10
2023-01-22T04:38:20.463Z,15.10
2023-01-22T04:40:52.086Z,14.80
2023-01-22T04:43:20.424Z,12.67
2023-01-22T04:45:52.762Z,14.65
2023-01-22T04:48:23.981Z,19.40
2023-01-22T04:50:53.897Z,14.30
2023-01-22T04:53:22.330Z,12.75
2023-01-22T04:55:55.818Z,15.60
2023-01-22T04:58:24.954Z,14.52
2023-01-22T05:00:57.399Z,14.50
2023-01-22T05:03:27.050Z,13.25
2023-01-22T05:06:00.462Z,13.27
2023-01-22T05:08:29.639Z,12.95
2023-01-22T05:11:07.487Z,11.93
2023-01-22T05:13:49.624Z,13.73
2023-01-22T05:16:18.831Z,11.93
2023-01-22T05:18:50.063Z,15.73
2023-01-22T05:21:19.955Z,14.60
2023-01-22T05:23:49.980Z,13.00
2023-01-22T05:26:21.388Z,12.48
2023-01-22T05:28:56.076Z,11.93
2023-01-22T05:31:45.458Z,12.68
2023-01-22T05:34:28.542Z,14.80
2023-01-22T05:37:01.058Z,13.63
2023-01-22T05:39:34.780Z,13.45
2023-01-22T05:42:07.778Z,13.73
2023-01-22T05:44:38.413Z,13.20
2023-01-22T05:47:07.210Z,13.50
2023-01-22T05:49:50.161Z,12.38
2023-01-22T05:52:19.130Z,12.65
2023-01-22T05:54:49.693Z,12.40
2023-01-22T05:57:21.205Z,14.63
2023-01-22T05:59:51.897Z,16.75
2023-01-22T06:02:23.705Z,14.52
2023-01-22T06:04:54.577Z,14.52
2023-01-22T06:07:27.302Z,13.02
2023-01-22T06:09:56.881Z,12.90
2023-01-22T06:12:27.427Z,13.23
2023-01-22T06:14:57.096Z,14.20
2023-01-22T06:17:26.409Z,13.65
2023-01-22T06:19:59.132Z,13.85
2023-01-22T06:22:29.101Z,13.30
2023-01-22T06:25:02.642Z,13.70
2023-01-22T06:27:51.164Z,10.60
2023-01-22T06:30:21.724Z,13.77
2023-01-22T06:32:54.245Z,13.30
2023-01-22T06:35:24.864Z,14.13
2023-01-22T06:37:53.920Z,14.20
2023-01-22T06:40:24.121Z,13.52
2023-01-22T06:42:54.361Z,12.90
2023-01-22T06:45:27.145Z,12.13
2023-01-22T06:48:01.698Z,13.15
2023-01-22T06:50:30.529Z,13.93
2023-01-22T06:53:01.614Z,12.90
2023-01-22T06:55:31.098Z,13.48
2023-01-22T06:58:01.428Z,14.00
2023-01-22T07:00:38.214Z,15.73
2023-01-22T07:03:09.979Z,13.30
2023-01-22T07:05:38.852Z,11.93
2023-01-22T07:08:08.678Z,11.18
2023-01-22T07:10:37.884Z,13.48
2023-01-22T07:13:10.421Z,14.93
2023-01-22T07:15:39.905Z,14.68
2023-01-22T07:18:14.752Z,13.30
2023-01-22T07:20:44.482Z,13.82
2023-01-22T07:23:13.268Z,13.30
2023-01-22T07:25:42.929Z,13.27
2023-01-22T07:28:17.234Z,19.65
2023-01-22T07:30:47.150Z,18.02
2023-01-22T07:33:18.725Z,26.73
2023-01-22T07:35:57.271Z,17.95
2023-01-22T07:38:29.000Z,14.77
2023-01-22T07:41:07.255Z,14.05
2023-01-22T07:43:43.296Z,14.43
2023-01-22T07:46:12.798Z,14.35
2023-01-22T07:48:44.954Z,13.90
2023-01-22T07:51:16.027Z,15.90
2023-01-22T07:53:44.891Z,15.17
2023-01-22T07:56:14.278Z,15.43
2023-01-22T07:58:45.123Z,14.73
2023-01-22T08:01:14.291Z,15.60
2023-01-22T08:03:43.921Z,16.02
2023-01-22T08:06:17.284Z,14.35
2023-01-22T08:08:46.401Z,11.70
2023-01-22T08:11:18.803Z,12.52
2023-01-22T08:13:52.149Z,12.90
2023-01-22T08:16:23.104Z,24.25
2023-01-22T08:18:53.050Z,18.67
2023-01-22T08:21:24.880Z,19.70
2023-01-22T08:23:55.478Z,25.63
2023-01-22T08:26:24.115Z,12.20
2023-01-22T08:28:54.565Z,10.65
2023-01-22T08:31:30.493Z,11.63
2023-01-22T08:34:08.005Z,11.55
2023-01-22T08:36:37.164Z,11.20
2023-01-22T08:39:07.432Z,16.50
2023-01-22T08:41:40.685Z,10.88
2023-01-22T08:44:17.172Z,12.20
2023-01-22T08:46:50.105Z,11.77
2023-01-22T08:49:23.800Z,12.57
2023-01-22T08:51:54.416Z,9.60
2023-01-22T08:54:24.777Z,10.23
2023-01-22T08:57:18.419Z,8.90
2023-01-22T09:00:01.004Z,10.25
2023-01-22T09:02:30.986Z,11.40
2023-01-22T09:05:11.218Z,13.57
2023-01-22T09:07:55.233Z,10.85
2023-01-22T09:10:33.769Z,24.20
2023-01-22T09:13:11.697Z,10.52
2023-01-22T09:15:50.732Z,13.30
2023-01-22T09:18:26.747Z,19.98
2023-01-22T09:21:02.264Z,12.63
2023-01-22T09:23:31.763Z,11.98
2023-01-22T09:26:09.011Z,19.48
2023-01-22T09:28:42.351Z,12.70
2023-01-22T09:31:21.670Z,13.52
2023-01-22T09:34:14.973Z,12.48
2023-01-22T09:36:52.407Z,17.75
2023-01-22T09:39:33.392Z,25.80
2023-01-22T09:42:11.314Z,13.80
2023-01-22T09:44:48.115Z,10.85
2023-01-22T09:50:31.487Z,16.92
2023-01-22T09:53:23.627Z,12.98
2023-01-22T09:56:03.906Z,11.85
2023-01-22T09:58:44.584Z,11.98
2023-01-22T10:01:26.397Z,11.98
2023-01-22T10:04:06.787Z,10.85
2023-01-22T10:06:50.467Z,10.23
2023-01-22T10:09:43.493Z,12.68
2023-01-22T10:12:20.697Z,12.88
2023-01-22T10:14:52.433Z,12.93
2023-01-22T10:17:40.199Z,10.40
2023-01-22T10:20:29.154Z,10.75
2023-01-22T10:23:10.545Z,15.55
2023-01-22T10:25:50.878Z,10.38
2023-01-22T10:28:38.938Z,10.10
2023-01-22T10:31:25.478Z,11.60
2023-01-22T10:34:05.679Z,10.35
2023-01-22T10:36:39.976Z,10.37
2023-01-22T10:39:17.568Z,10.60
2023-01-22T10:41:49.577Z,10.73
2023-01-22T10:44:28.596Z,10.73
2023-01-22T10:47:12.512Z,12.02
2023-01-22T10:49:42.833Z,10.70
2023-01-22T10:52:34.970Z,12.80
2023-01-22T10:55:06.214Z,12.35
2023-01-22T10:57:38.016Z,14.48
2023-01-22T11:00:24.880Z,12.38
2023-01-22T11:02:54.368Z,10.95
2023-01-22T11:05:27.721Z,11.90
2023-01-22T11:08:03.660Z,13.10
2023-01-22T11:10:46.707Z,11.40
2023-01-22T11:13:19.092Z,10.57
2023-01-22T11:15:57.574Z,11.27
2023-01-22T11:18:33.555Z,27.98
2023-01-22T11:21:07.703Z,13.13
2023-01-22T11:23:49.705Z,12.07
2023-01-22T11:26:37.683Z,11.90
2023-01-22T11:29:24.577Z,11.80
2023-01-22T11:32:15.011Z,10.75
2023-01-22T11:35:05.088Z,10.80
2023-01-22T11:38:02.097Z,11.20
2023-01-22T11:40:36.694Z,12.27
2023-01-22T11:43:33.787Z,10.70
2023-01-22T11:46:38.080Z,10.23
2023-01-22T11:49:27.228Z,10.25
2023-01-22T11:52:18.607Z,10.73
2023-01-22T11:55:10.810Z,11.60
2023-01-22T11:57:58.024Z,9.82
2023-01-22T12:00:45.885Z,9.65
2023-01-22T12:03:52.675Z,10.07
2023-01-22T12:07:20.625Z,10.10
2023-01-22T12:10:08.415Z,9.90
2023-01-22T12:13:06.052Z,10.10
2023-01-22T12:15:58.365Z,8.98
2023-01-22T12:19:33.509Z,9.20
2023-01-22T12:22:20.569Z,9.65
2023-01-22T12:25:12.008Z,9.05
2023-01-22T12:27:52.386Z,9.15
2023-01-22T12:30:29.122Z,9.63
2023-01-22T12:33:19.081Z,12.50
2023-01-22T12:35:54.665Z,9.55
2023-01-22T12:38:42.640Z,11.65
2023-01-22T12:41:48.828Z,10.05
2023-01-22T12:44:45.676Z,8.93
2023-01-22T12:47:23.088Z,8.63
2023-01-22T12:49:54.664Z,12.50
2023-01-22T12:52:37.790Z,9.57
2023-01-22T12:55:24.344Z,7.88
2023-01-22T12:57:53.699Z,8.90
2023-01-22T13:00:34.958Z,24.63
2023-01-22T13:03:30.993Z,10.35
2023-01-22T13:06:02.006Z,10.07
2023-01-22T13:08:53.934Z,9.32
2023-01-22T13:11:45.616Z,8.73
2023-01-22T13:14:24.666Z,8.73
2023-01-22T13:17:00.721Z,7.95
2023-01-22T13:19:39.200Z,13.52
2023-01-22T13:22:13.249Z,9.57
2023-01-22T13:24:51.455Z,8.45
2023-01-22T13:27:28.964Z,7.88
2023-01-22T13:30:09.489Z,9.13
2023-01-22T13:32:39.988Z,9.27
2023-01-22T13:35:14.162Z,7.80
2023-01-22T13:37:45.182Z,10.43
2023-01-22T13:40:33.066Z,8.63
2023-01-22T13:43:08.521Z,7.53
2023-01-22T13:45:41.294Z,12.18
2023-01-22T13:48:19.438Z,11.00
2023-01-22T13:50:56.146Z,11.52
2023-01-22T13:53:33.579Z,12.90
2023-01-22T13:56:03.738Z,15.95
2023-01-22T13:58:49.056Z,12.50
2023-01-22T14:01:36.765Z,12.23
2023-01-22T14:04:26.416Z,14.10
2023-01-22T14:06:54.947Z,10.30
2023-01-22T14:09:34.905Z,10.35
2023-01-22T14:12:20.857Z,9.63
2023-01-22T14:14:51.664Z,12.80
2023-01-22T14:17:29.486Z,12.20
2023-01-22T14:20:00.486Z,8.70
2023-01-22T14:22:30.873Z,9.68
2023-01-22T14:25:01.351Z,8.50
2023-01-22T14:27:44.065Z,13.80
2023-01-22T14:30:32.605Z,9.32
2023-01-22T14:33:01.958Z,12.00
2023-01-22T14:35:35.716Z,10.80
2023-01-22T14:38:05.318Z,9.35
2023-01-22T14:40:35.520Z,16.73
2023-01-22T14:43:07.125Z,16.45
2023-01-22T14:45:37.572Z,16.38
2023-01-22T14:48:07.752Z,14.40
2023-01-22T14:50:44.649Z,19.63
2023-01-22T14:53:17.707Z,21.50
2023-01-22T14:55:52.305Z,13.87
2023-01-22T14:58:21.668Z,7.97
2023-01-22T15:00:55.208Z,9.73
2023-01-22T15:03:23.991Z,15.20
2023-01-22T15:05:58.225Z,16.00
2023-01-22T15:08:27.553Z,17.23
2023-01-22T15:11:00.528Z,8.38
2023-01-22T15:13:30.157Z,8.73
2023-01-22T15:16:05.520Z,6.80
2023-01-22T15:18:37.564Z,6.72
2023-01-22T15:21:09.192Z,6.50
2023-01-22T15:23:38.370Z,6.85
2023-01-22T15:26:09.575Z,7.10
2023-01-22T15:28:40.056Z,6.78
2023-01-22T15:31:10.007Z,7.18
2023-01-22T15:33:39.358Z,7.55
2023-01-22T15:36:10.874Z,7.47
2023-01-22T15:38:40.856Z,6.80
2023-01-22T15:41:21.647Z,5.60
2023-01-22T15:43:52.458Z,6.05
2023-01-22T15:46:23.297Z,8.07
2023-01-22T15:48:54.583Z,7.50
2023-01-22T15:51:26.136Z,6.90
2023-01-22T15:53:57.250Z,7.05
2023-01-22T15:56:30.528Z,6.97
2023-01-22T15:59:00.154Z,6.90
2023-01-22T16:01:31.166Z,7.68
2023-01-22T16:04:03.443Z,8.02
2023-01-22T16:06:36.131Z,18.87
2023-01-22T16:09:07.394Z,16.27
2023-01-22T16:11:37.444Z,10.63
2023-01-22T16:14:06.662Z,14.20
2023-01-22T16:16:38.364Z,12.20
2023-01-22T16:19:11.397Z,11.00
2023-01-22T16:21:43.450Z,9.70
2023-01-22T16:24:13.679Z,7.82
2023-01-22T16:26:42.637Z,8.38
2023-01-22T16:29:13.278Z,7.60
2023-01-22T16:31:44.338Z,13.27
2023-01-22T16:34:16.152Z,8.17
2023-01-22T16:36:46.612Z,6.82
2023-01-22T16:39:20.541Z,7.60
2023-01-22T16:41:51.396Z,8.10
2023-01-22T16:44:26.280Z,14.95
2023-01-22T16:47:00.033Z,8.50
2023-01-22T16:49:32.515Z,8.63
2023-01-22T16:52:20.656Z,7.32
2023-01-22T16:54:51.392Z,6.90
2023-01-22T16:57:20.380Z,9.20
2023-01-22T16:59:48.829Z,7.38
2023-01-22T17:02:19.216Z,7.55
2023-01-22T17:04:48.209Z,11.70
2023-01-22T17:07:32.656Z,16.73
2023-01-22T17:10:02.480Z,14.90
2023-01-22T17:12:33.368Z,9.95
2023-01-22T17:15:01.770Z,9.07
2023-01-22T17:17:33.313Z,9.32
2023-01-22T17:20:02.235Z,9.40
2023-01-22T17:22:33.198Z,10.70
2023-01-22T17:25:03.634Z,9.70
2023-01-22T17:27:33.467Z,8.80
2023-01-22T17:30:02.250Z,8.40
2023-01-22T17:32:30.796Z,9.80
2023-01-22T17:35:01.023Z,10.30
2023-01-22T17:37:29.270Z,10.00
2023-01-22T17:40:00.238Z,10.03
2023-01-22T17:42:32.222Z,20.70
2023-01-22T17:45:01.049Z,16.42
2023-01-22T17:47:29.592Z,10.05
2023-01-22T17:49:59.311Z,11.60
2023-01-22T17:52:28.722Z,10.70
2023-01-22T17:55:00.482Z,12.57
2023-01-22T17:57:29.251Z,11.45
2023-01-22T18:00:01.460Z,11.27
2023-01-22T18:02:29.877Z,12.18
2023-01-22T18:04:58.572Z,10.65
2023-01-22T18:07:26.948Z,13.45
2023-01-22T18:09:55.641Z,17.65
2023-01-22T18:12:26.890Z,17.87
2023-01-22T18:14:55.314Z,20.17
2023-01-22T18:17:23.780Z,12.73
2023-01-22T18:19:52.725Z,18.58
2023-01-22T18:22:21.242Z,17.37
2023-01-22T18:24:52.167Z,25.73
2023-01-22T18:27:20.929Z,11.75
2023-01-22T18:29:50.954Z,14.95
2023-01-22T18:32:20.140Z,17.42
2023-01-22T18:34:48.649Z,13.50
2023-01-22T18:37:17.405Z,16.23
2023-01-22T18:39:46.344Z,15.93
2023-01-22T18:42:15.218Z,12.95
2023-01-22T18:44:43.448Z,13.57
2023-01-22T18:47:13.512Z,12.05
2023-01-22T18:49:42.072Z,13.32
2023-01-22T18:52:10.930Z,12.00
2023-01-22T18:54:39.891Z,12.90
2023-01-22T18:57:08.849Z,11.95
2023-01-22T18:59:37.627Z,10.80
2023-01-22T19:02:10.805Z,10.65
2023-01-22T19:04:43.069Z,10.60
2023-01-22T19:07:12.490Z,16.35
2023-01-22T19:09:41.177Z,15.88
2023-01-22T19:12:13.866Z,19.63
2023-01-22T19:14:42.527Z,12.07
2023-01-22T19:17:13.278Z,11.90
2023-01-22T19:19:43.562Z,11.52
2023-01-22T19:22:12.644Z,11.57
2023-01-22T19:24:43.709Z,11.30
2023-01-22T19:27:12.776Z,11.07
2023-01-22T19:29:42.336Z,11.25
2023-01-22T19:32:16.634Z,11.65
2023-01-22T19:34:46.500Z,11.77
2023-01-22T19:37:15.217Z,15.98
2023-01-22T19:39:43.829Z,12.57
2023-01-22T19:42:12.453Z,12.20
2023-01-22T19:44:42.226Z,11.23
2023-01-22T19:47:12.436Z,11.80
2023-01-22T19:49:41.881Z,14.85
2023-01-22T19:52:13.386Z,31.25
2023-01-22T19:54:47.664Z,22.17
2023-01-22T19:57:16.644Z,20.33
2023-01-22T19:59:48.317Z,15.02
2023-01-22T20:02:19.071Z,15.82
2023-01-22T20:04:48.938Z,13.35
2023-01-22T20:07:19.748Z,15.32
2023-01-22T20:09:48.983Z,15.95
2023-01-22T20:12:20.416Z,14.27
2023-01-22T20:14:48.917Z,13.43
2023-01-22T20:17:17.688Z,13.60
2023-01-22T20:19:46.354Z,12.53
2023-01-22T20:22:15.534Z,15.95
2023-01-22T20:24:45.613Z,14.48
2023-01-22T20:27:15.028Z,16.33
2023-01-22T20:29:44.380Z,29.17
2023-01-22T20:32:12.753Z,21.98
2023-01-22T20:34:42.927Z,16.58
2023-01-22T20:37:11.808Z,19.55
2023-01-22T20:39:40.162Z,16.98
2023-01-22T20:42:12.033Z,16.15
2023-01-22T20:44:41.731Z,21.58
2023-01-22T20:47:10.085Z,14.00
2023-01-22T20:49:38.328Z,24.65
2023-01-22T20:52:07.168Z,17.58
2023-01-22T20:54:42.828Z,16.27
2023-01-22T20:57:20.707Z,13.68
2023-01-22T20:59:49.577Z,18.13
2023-01-22T21:02:18.298Z,17.52
2023-01-22T21:04:46.598Z,14.88
2023-01-22T21:07:17.881Z,14.70
2023-01-22T21:09:46.291Z,14.75
2023-01-22T21:12:14.881Z,14.75
2023-01-22T21:14:44.466Z,14.95
2023-01-22T21:17:13.218Z,12.68
2023-01-22T21:19:44.176Z,13.05
2023-01-22T21:22:12.839Z,12.05
2023-01-22T21:24:41.878Z,11.50
2023-01-22T21:27:10.289Z,12.23
2023-01-22T21:29:39.159Z,12.77
2023-01-22T21:32:09.149Z,12.20
2023-01-22T21:34:38.204Z,14.40
2023-01-22T21:37:06.446Z,12.52
2023-01-22T21:39:35.764Z,15.20
2023-01-22T21:42:22.077Z,14.77
2023-01-22T21:45:08.000Z,14.13
2023-01-22T21:47:37.636Z,13.20
2023-01-22T21:50:07.111Z,12.60
2023-01-22T21:52:36.029Z,12.13
2023-01-22T21:55:05.215Z,13.70
2023-01-22T21:57:33.398Z,14.48
2023-01-22T22:00:02.774Z,14.02
2023-01-22T22:02:32.526Z,11.40
2023-01-22T22:05:05.695Z,12.73
2023-01-22T22:07:34.184Z,12.43
2023-01-22T22:10:03.363Z,12.07
2023-01-22T22:12:32.571Z,11.57
2023-01-22T22:15:00.852Z,11.63
2023-01-22T22:17:29.733Z,11.77
2023-01-22T22:19:59.492Z,11.98
2023-01-22T22:22:29.336Z,12.20
2023-01-22T22:24:58.049Z,12.70
2023-01-22T22:27:27.851Z,12.50
2023-01-22T22:29:56.572Z,12.10
2023-01-22T22:32:25.586Z,13.20
2023-01-22T22:34:54.325Z,12.27
2023-01-22T22:37:22.677Z,13.02
2023-01-22T22:39:52.879Z,12.95
2023-01-22T22:42:21.113Z,13.63
2023-01-22T22:44:50.033Z,12.80
2023-01-22T22:47:19.499Z,13.77
2023-01-22T22:49:47.936Z,12.68
2023-01-22T22:52:17.675Z,12.95
2023-01-22T22:54:46.479Z,13.18
2023-01-22T22:57:16.942Z,11.95
2023-01-22T22:59:45.186Z,13.00
2023-01-22T23:02:15.517Z,12.98
2023-01-22T23:04:44.288Z,13.57
2023-01-22T23:07:12.565Z,12.30
2023-01-22T23:09:42.207Z,12.68
2023-01-22T23:12:10.619Z,13.07
2023-01-22T23:14:42.345Z,12.10
2023-01-22T23:17:10.787Z,12.20
2023-01-22T23:19:39.154Z,12.15
2023-01-22T23:22:08.070Z,12.07
2023-01-22T23:24:36.358Z,11.25
2023-01-22T23:27:06.079Z,11.88
2023-01-22T23:29:36.982Z,11.93
2023-01-22T23:32:08.557Z,12.07
2023-01-22T23:34:37.863Z,11.27
2023-01-22T23:37:07.493Z,12.52
2023-01-22T23:39:38.904Z,15.98
2023-01-22T23:42:07.688Z,16.88
2023-01-22T23:44:36.007Z,16.45
2023-01-22T23:47:05.924Z,11.00
2023-01-22T23:49:36.189Z,11.48
2023-01-22T23:52:05.811Z,10.50
2023-01-22T23:54:34.527Z,11.50
2023-01-22T23:57:04.093Z,13.63
2023-01-22T23:59:33.163Z,16.90
